Time;durP1;ratioP1;P1;durP2;ratioP2;P2;SDS_P1;SDS_P2;PMS_P1;PMS_P2;Temp;Humidity;BMP_temperature;BMP_pressure;BME280_temperature;BME280_humidity;BME280_pressure;Samples;Min_cycle;Max_cycle;Signal;HPM_P1;HPM_P2
2023/05/09 00:01:55;;;;;;;15.98;13.25;;;12.80;99.90;;;12.45;100.00;97533.09;4890157;29;20044;-36
2023/05/09 00:04:21;;;;;;;20.25;13.90;;;12.80;99.90;;;12.46;100.00;97529.53;4885167;29;20405;-36
2023/05/09 00:06:46;;;;;;;17.60;14.50;;;12.80;99.90;;;12.52;100.00;97523.97;4889039;29;20059;-36
2023/05/09 00:09:12;;;;;;;18.27;14.80;;;12.90;99.90;;;12.58;100.00;97522.88;4888529;29;20637;-36
2023/05/09 00:11:38;;;;;;;19.23;14.55;;;12.90;99.90;;;12.62;100.00;97518.31;4888736;29;20836;-36
2023/05/09 00:14:04;;;;;;;17.50;14.15;;;13.00;99.90;;;12.69;100.00;97528.56;4888067;29;20040;-36
2023/05/09 00:16:31;;;;;;;16.98;13.50;;;13.00;99.90;;;12.73;100.00;97522.19;4891174;29;20032;-36
2023/05/09 00:18:58;;;;;;;16.08;13.63;;;13.10;99.90;;;12.79;100.00;97524.59;4885008;29;20032;-36
2023/05/09 00:21:23;;;;;;;16.85;13.85;;;13.10;99.90;;;12.85;100.00;97527.88;4890055;29;20501;-36
2023/05/09 00:23:49;;;;;;;20.58;15.30;;;13.20;99.90;;;12.89;100.00;97513.59;4886531;29;20068;-36
2023/05/09 00:26:16;;;;;;;19.30;14.30;;;13.20;99.90;;;12.92;100.00;97511.69;4885694;29;20074;-36
2023/05/09 00:28:41;;;;;;;17.02;14.30;;;13.20;99.90;;;12.90;100.00;97494.13;4887793;29;20366;-36
2023/05/09 00:31:07;;;;;;;16.65;13.77;;;13.30;99.90;;;12.99;100.00;97504.28;4885013;29;20239;-36
2023/05/09 00:33:33;;;;;;;17.38;14.20;;;13.30;99.90;;;13.01;100.00;97499.81;4889195;29;20031;-36
2023/05/09 00:35:59;;;;;;;17.20;14.45;;;13.30;99.90;;;13.03;100.00;97499.72;4885125;29;20430;-36
2023/05/09 00:38:24;;;;;;;15.90;13.85;;;13.40;99.90;;;13.02;100.00;97498.88;4872581;29;20048;-36
2023/05/09 00:40:50;;;;;;;18.60;14.70;;;13.30;99.90;;;13.02;100.00;97501.53;4885915;29;20058;-36
2023/05/09 00:43:16;;;;;;;19.23;15.27;;;13.40;99.90;;;12.94;100.00;97486.00;4890533;29;20041;-36
2023/05/09 00:45:44;;;;;;;18.00;14.32;;;13.40;99.90;;;13.04;100.00;97499.66;4885272;29;20135;-36
2023/05/09 00:48:09;;;;;;;19.63;15.52;;;13.40;99.90;;;13.05;100.00;97495.25;4869091;29;20032;-36
2023/05/09 00:50:36;;;;;;;20.27;14.80;;;13.40;99.90;;;13.05;100.00;97489.94;4888717;29;20035;-36
2023/05/09 00:53:03;;;;;;;22.08;16.15;;;13.40;99.90;;;13.03;100.00;97487.38;4886426;29;20032;-36
2023/05/09 00:55:29;;;;;;;20.85;14.85;;;13.40;99.90;;;12.96;100.00;97470.03;4887336;29;20032;-36
2023/05/09 00:57:55;;;;;;;20.00;15.38;;;13.30;99.90;;;12.97;100.00;97475.28;4886295;29;20170;-36
2023/05/09 01:00:21;;;;;;;19.42;15.48;;;13.30;99.90;;;12.96;100.00;97476.19;4867872;29;20052;-36
2023/05/09 01:02:52;;;;;;;20.35;16.38;;;13.30;99.90;;;12.86;100.00;97463.44;4879731;29;20036;-36
2023/05/09 01:05:19;;;;;;;20.85;16.08;;;13.30;99.90;;;12.91;100.00;97472.03;4866441;29;20038;-36
2023/05/09 01:07:51;;;;;;;22.55;16.95;;;13.20;99.90;;;12.88;100.00;97467.72;4885536;29;20427;-36
2023/05/09 01:11:00;;;;;;;22.70;16.70;;;13.20;99.90;;;12.87;100.00;97473.97;4861223;29;20203;-36
2023/05/09 01:13:43;;;;;;;24.15;17.27;;;13.20;99.90;;;12.82;100.00;97462.72;4886498;29;20821;-36
2023/05/09 01:16:36;;;;;;;21.60;16.27;;;13.20;99.90;;;12.84;100.00;97462.66;4870687;29;20501;-36
2023/05/09 01:19:18;;;;;;;24.92;17.67;;;13.20;99.90;;;12.84;100.00;97468.78;4867378;29;20040;-36
2023/05/09 01:21:48;;;;;;;26.30;17.40;;;13.20;99.90;;;12.83;100.00;97460.91;4883321;29;20040;-36
2023/05/09 01:24:54;;;;;;;22.48;17.25;;;13.20;99.90;;;12.79;100.00;97461.09;4867405;29;20040;-36
2023/05/09 01:27:29;;;;;;;21.83;16.92;;;13.20;99.90;;;12.75;100.00;97466.56;4883359;29;20660;-36
2023/05/09 01:29:57;;;;;;;24.42;17.48;;;13.10;99.90;;;12.73;100.00;97464.00;4882771;29;20219;-36
2023/05/09 01:32:27;;;;;;;22.83;17.58;;;13.10;99.90;;;12.72;100.00;97467.56;4868146;29;20055;-36
2023/05/09 01:35:00;;;;;;;29.20;18.40;;;13.10;99.90;;;12.72;100.00;97462.28;4865790;29;20119;-36
2023/05/09 01:37:31;;;;;;;22.70;17.13;;;13.10;99.90;;;12.72;100.00;97464.94;4878465;29;20496;-36
2023/05/09 01:40:05;;;;;;;24.65;17.75;;;13.10;99.90;;;12.72;100.00;97459.63;4883526;29;20105;-36
2023/05/09 01:43:05;;;;;;;23.23;17.40;;;13.10;99.90;;;12.71;100.00;97455.25;4867251;29;20040;-36
2023/05/09 01:45:33;;;;;;;23.30;17.88;;;13.10;99.90;;;12.64;100.00;97445.03;4867567;29;20071;-36
2023/05/09 01:48:00;;;;;;;23.05;17.20;;;13.00;99.90;;;12.68;100.00;97452.75;4867393;29;20498;-36
2023/05/09 01:50:28;;;;;;;24.15;17.73;;;13.00;99.90;;;12.69;100.00;97450.97;4869084;29;20069;-36
2023/05/09 01:52:57;;;;;;;22.73;17.27;;;13.10;99.90;;;12.68;100.00;97447.44;4884011;29;20035;-36
2023/05/09 01:55:30;;;;;;;26.00;19.08;;;13.10;99.90;;;12.65;100.00;97444.09;4884329;29;20036;-36
2023/05/09 01:57:57;;;;;;;24.60;18.70;;;13.00;99.90;;;12.67;100.00;97447.50;4882729;29;20120;-36
2023/05/09 02:00:24;;;;;;;27.10;19.85;;;13.00;99.90;;;12.57;100.00;97426.75;4884764;29;20044;-36
2023/05/09 02:02:51;;;;;;;23.73;17.75;;;13.00;99.90;;;12.63;100.00;97436.22;4867189;29;20433;-36
2023/05/09 02:05:17;;;;;;;23.88;18.08;;;13.00;99.90;;;12.60;100.00;97431.94;4884971;29;20458;-36
2023/05/09 02:07:46;;;;;;;25.83;19.30;;;13.00;99.90;;;12.58;100.00;97439.06;4868568;29;20047;-36
2023/05/09 02:10:14;;;;;;;24.50;18.10;;;12.90;99.90;;;12.54;100.00;97448.09;4849467;29;20605;-36
2023/05/09 02:12:40;;;;;;;25.38;19.35;;;12.90;99.90;;;12.54;100.00;97450.72;4869357;29;20033;-36
2023/05/09 02:15:07;;;;;;;24.63;18.58;;;12.90;99.90;;;12.51;100.00;97456.16;4881485;29;20038;-36
2023/05/09 02:17:33;;;;;;;25.98;19.13;;;12.90;99.90;;;12.48;100.00;97448.34;4884531;29;20036;-36
2023/05/09 02:19:59;;;;;;;21.65;17.65;;;12.80;99.90;;;12.50;100.00;97457.06;4883894;29;20040;-36
2023/05/09 02:22:25;;;;;;;25.13;18.30;;;12.80;99.90;;;12.51;100.00;97456.16;4884776;29;20052;-36
2023/05/09 02:24:50;;;;;;;27.40;19.27;;;12.80;99.90;;;12.51;100.00;97452.66;4860025;29;20040;-36
2023/05/09 02:27:17;;;;;;;23.05;17.45;;;12.80;99.90;;;12.51;100.00;97453.50;4860497;29;20041;-36
2023/05/09 02:29:48;;;;;;;22.92;18.27;;;12.90;99.90;;;12.52;100.00;97452.56;4856094;29;20423;-36
2023/05/09 02:32:24;;;;;;;23.33;17.77;;;12.90;99.90;;;12.53;100.00;97453.44;4881913;29;20033;-36
2023/05/09 02:34:53;;;;;;;21.63;16.35;;;12.90;99.90;;;12.50;100.00;97442.97;4864737;29;20407;-36
2023/05/09 02:37:20;;;;;;;24.90;17.13;;;12.90;99.90;;;12.51;100.00;97442.06;4883309;29;20386;-36
2023/05/09 02:39:46;;;;;;;24.10;17.38;;;12.80;99.90;;;12.51;100.00;97439.44;4877920;29;20043;-36
2023/05/09 02:42:17;;;;;;;25.75;18.20;;;12.90;99.90;;;12.44;100.00;97433.53;4884540;29;20493;-36
2023/05/09 02:44:42;;;;;;;22.00;17.48;;;12.80;99.90;;;12.52;100.00;97443.78;4883460;29;20036;-36
2023/05/09 02:47:08;;;;;;;28.30;19.83;;;12.90;99.90;;;12.52;100.00;97433.19;4885125;29;20073;-36
2023/05/09 02:49:34;;;;;;;21.60;17.23;;;12.80;99.90;;;12.51;100.00;97432.34;4886208;29;20055;-36
2023/05/09 02:52:00;;;;;;;23.80;18.05;;;12.90;99.90;;;12.50;100.00;97425.31;4879191;29;20032;-36
2023/05/09 02:54:25;;;;;;;22.52;17.25;;;12.80;99.90;;;12.50;100.00;97424.47;4886353;29;20037;-36
2023/05/09 02:56:51;;;;;;;24.20;18.27;;;12.80;99.90;;;12.50;100.00;97424.47;4883696;29;20048;-36
2023/05/09 02:59:18;;;;;;;24.80;18.27;;;12.80;99.90;;;12.44;100.00;97409.72;4880918;29;20029;-36
2023/05/09 03:01:44;;;;;;;22.20;17.23;;;12.80;99.90;;;12.48;100.00;97415.75;4880372;29;20045;-36
2023/05/09 03:04:10;;;;;;;22.77;18.00;;;12.80;99.90;;;12.45;100.00;97398.22;4887302;29;20629;-36
2023/05/09 03:06:36;;;;;;;24.02;17.75;;;12.80;99.90;;;12.44;100.00;97403.59;4885228;29;20048;-36
2023/05/09 03:09:02;;;;;;;22.85;17.92;;;12.80;99.90;;;12.38;100.00;97388.81;4883753;29;20756;-36
2023/05/09 03:11:28;;;;;;;25.48;17.80;;;12.80;99.90;;;12.40;100.00;97409.00;4882137;29;20040;-36
2023/05/09 03:13:54;;;;;;;24.58;17.88;;;12.80;99.90;;;12.39;100.00;97406.44;4884425;29;20055;-36
2023/05/09 03:16:19;;;;;;;25.98;18.23;;;12.80;99.90;;;12.39;100.00;97406.44;4886960;29;20040;-36
2023/05/09 03:18:45;;;;;;;23.33;17.60;;;12.70;99.90;;;12.38;100.00;97410.88;4881695;29;20047;-36
2023/05/09 03:21:11;;;;;;;25.70;18.00;;;12.70;99.90;;;12.38;100.00;97408.22;4879185;29;20093;-36
2023/05/09 03:23:38;;;;;;;29.52;19.33;;;12.70;99.90;;;12.38;100.00;97409.97;4884683;29;20052;-36
2023/05/09 03:26:04;;;;;;;24.88;19.00;;;12.70;99.90;;;12.37;100.00;97406.50;4881004;29;20138;-36
2023/05/09 03:28:30;;;;;;;22.50;18.17;;;12.70;99.90;;;12.32;100.00;97397.03;4884925;29;20050;-36
2023/05/09 03:30:56;;;;;;;21.58;17.20;;;12.70;99.90;;;12.31;100.00;97393.56;4878905;29;20041;-36
2023/05/09 03:33:21;;;;;;;25.33;18.75;;;12.70;99.90;;;12.35;100.00;97397.78;4882326;29;20557;-36
2023/05/09 03:35:47;;;;;;;25.38;18.60;;;12.70;99.90;;;12.34;100.00;97396.03;4879915;29;20037;-36
2023/05/09 03:38:13;;;;;;;25.67;18.45;;;12.70;99.90;;;12.31;100.00;97387.38;4877062;29;20131;-36
2023/05/09 03:40:38;;;;;;;28.00;19.52;;;12.70;99.90;;;12.30;100.00;97393.63;4878942;29;20033;-36
2023/05/09 03:43:04;;;;;;;32.97;20.75;;;12.60;99.90;;;12.29;100.00;97392.75;4884459;29;20107;-36
2023/05/09 03:45:30;;;;;;;25.65;19.85;;;12.70;99.90;;;12.25;100.00;97387.66;4884509;29;20036;-36
2023/05/09 03:47:56;;;;;;;27.67;19.98;;;12.60;99.90;;;12.29;100.00;97395.41;4882618;29;20119;-36
2023/05/09 03:50:21;;;;;;;27.90;20.23;;;12.70;99.90;;;12.30;100.00;97396.25;4881854;29;20841;-36
2023/05/09 03:52:47;;;;;;;26.58;19.98;;;12.60;99.90;;;12.30;100.00;97390.97;4879640;29;20037;-36
2023/05/09 03:55:13;;;;;;;28.58;20.75;;;12.60;99.90;;;12.33;100.00;97390.84;4883064;29;20868;-36
2023/05/09 03:57:38;;;;;;;26.90;20.02;;;12.70;99.90;;;12.33;100.00;97389.03;4885498;29;20064;-36
2023/05/09 04:00:05;;;;;;;27.83;20.02;;;12.70;99.90;;;12.36;100.00;97390.69;4884512;29;20045;-36
2023/05/09 04:02:33;;;;;;;32.10;20.58;;;12.70;99.90;;;12.38;100.00;97399.41;4888509;29;20119;-36
2023/05/09 04:04:59;;;;;;;30.50;22.00;;;12.70;99.90;;;12.37;100.00;97392.41;4885801;29;20530;-36
2023/05/09 04:07:27;;;;;;;28.80;21.92;;;12.70;99.90;;;12.40;100.00;97389.66;4866537;29;20366;-36
2023/05/09 04:09:54;;;;;;;28.83;20.73;;;12.70;99.90;;;12.41;100.00;97389.53;4880996;29;20047;-36
2023/05/09 04:12:20;;;;;;;31.08;21.25;;;12.70;99.90;;;12.43;100.00;97384.19;4879474;29;20395;-36
2023/05/09 04:14:46;;;;;;;27.95;20.30;;;12.80;99.90;;;12.45;100.00;97384.13;4881946;29;20032;-36
2023/05/09 04:17:12;;;;;;;31.02;21.42;;;12.80;99.90;;;12.39;100.00;97382.63;4868589;29;20052;-36
2023/05/09 04:19:38;;;;;;;26.58;18.45;;;12.80;99.90;;;12.45;100.00;97390.28;4879157;29;20028;-36
2023/05/09 04:22:03;;;;;;;27.08;19.83;;;12.80;99.90;;;12.46;100.00;97388.50;4882525;29;20064;-36
2023/05/09 04:24:29;;;;;;;30.77;20.15;;;12.80;99.90;;;12.46;100.00;97381.44;4884967;29;20036;-36
2023/05/09 04:26:55;;;;;;;27.83;19.90;;;12.80;99.90;;;12.47;100.00;97385.81;4884656;29;20037;-36
2023/05/09 04:29:20;;;;;;;25.02;18.33;;;12.80;99.90;;;12.48;100.00;97392.78;4884888;29;20075;-36
2023/05/09 04:31:46;;;;;;;27.85;19.35;;;12.80;99.90;;;12.48;100.00;97395.44;4886259;29;20032;-36
2023/05/09 04:34:12;;;;;;;23.90;17.58;;;12.80;99.90;;;12.48;100.00;97392.78;4892329;29;20345;-36
2023/05/09 04:36:37;;;;;;;24.13;18.02;;;12.80;99.90;;;12.52;100.00;97396.16;4890620;29;20037;-36
2023/05/09 04:39:04;;;;;;;26.13;18.73;;;12.90;99.90;;;12.56;100.00;97398.59;4882597;29;20609;-36
2023/05/09 04:41:29;;;;;;;26.92;19.38;;;12.90;99.90;;;12.60;100.00;97396.69;4886529;29;20032;-36
2023/05/09 04:43:55;;;;;;;24.02;18.65;;;12.90;99.90;;;12.64;100.00;97398.25;4882240;29;20560;-36
2023/05/09 04:46:21;;;;;;;26.73;18.50;;;13.00;99.90;;;12.68;100.00;97394.53;4894269;29;20040;-36
2023/05/09 04:48:47;;;;;;;26.45;17.98;;;13.00;99.90;;;12.75;100.00;97401.25;4888462;29;20048;-36
2023/05/09 04:51:12;;;;;;;24.42;17.60;;;13.10;99.90;;;12.86;100.00;97395.47;4883150;29;20190;-36
2023/05/09 04:53:38;;;;;;;29.20;19.23;;;13.20;99.90;;;12.94;100.00;97406.59;4880880;29;20044;-36
2023/05/09 04:56:04;;;;;;;24.48;18.08;;;13.30;99.90;;;13.04;100.00;97401.69;4884768;29;20048;-36
2023/05/09 04:58:30;;;;;;;25.88;19.20;;;13.40;99.90;;;13.14;100.00;97397.69;4882452;29;20705;-36
2023/05/09 05:00:56;;;;;;;26.60;19.58;;;13.50;99.90;;;13.23;100.00;97393.75;4880521;29;20044;-36
2023/05/09 05:03:22;;;;;;;25.52;18.25;;;13.60;99.90;;;13.32;100.00;97388.03;4865564;29;20409;-36
2023/05/09 05:05:47;;;;;;;25.70;19.33;;;13.60;99.90;;;13.42;100.00;97390.25;4875777;29;20043;-36
2023/05/09 05:08:13;;;;;;;24.70;17.85;;;13.70;99.90;;;13.47;100.00;97377.66;4882721;29;20024;-36
2023/05/09 05:10:39;;;;;;;22.27;16.33;;;13.80;99.90;;;13.54;100.00;97384.34;4880825;29;20020;-36
2023/05/09 05:13:04;;;;;;;23.55;17.73;;;13.90;99.90;;;13.57;100.00;97392.16;4884192;29;20052;-36
2023/05/09 05:15:30;;;;;;;22.73;16.48;;;13.90;99.90;;;13.63;100.00;97383.06;4879898;29;20040;-36
2023/05/09 05:17:56;;;;;;;19.05;15.00;;;14.00;99.90;;;13.68;100.00;97388.97;4888830;29;20035;-37
2023/05/09 05:20:21;;;;;;;23.15;15.95;;;14.00;99.90;;;13.73;100.00;97382.50;4888822;29;20069;-37
2023/05/09 05:22:47;;;;;;;18.15;14.27;;;14.10;99.90;;;13.77;100.00;97380.56;4893231;29;20036;-37
2023/05/09 05:25:13;;;;;;;19.40;14.18;;;14.10;99.90;;;13.83;100.00;97384.69;4888259;29;20090;-36
2023/05/09 05:27:38;;;;;;;17.27;13.85;;;14.20;99.90;;;13.88;100.00;97386.19;4881618;29;20121;-35
2023/05/09 05:30:05;;;;;;;18.40;14.27;;;14.20;99.90;;;13.88;100.00;97375.56;4869984;29;20061;-35
2023/05/09 05:32:31;;;;;;;14.95;13.02;;;14.30;99.90;;;13.99;100.00;97382.13;4895922;29;20130;-36
2023/05/09 05:34:56;;;;;;;20.00;14.27;;;14.30;99.90;;;14.03;100.00;97375.72;4885196;29;20404;-37
2023/05/09 05:37:22;;;;;;;18.20;14.45;;;14.40;99.90;;;14.08;100.00;97376.34;4889728;29;20036;-37
2023/05/09 05:39:50;;;;;;;23.77;17.77;;;14.40;99.90;;;14.10;100.00;97374.47;4892792;29;20414;-36
2023/05/09 05:42:16;;;;;;;21.52;15.27;;;14.40;99.90;;;14.11;100.00;97374.41;4888940;29;20123;-37
2023/05/09 05:44:41;;;;;;;21.17;15.35;;;14.50;99.90;;;14.10;100.00;97372.72;4892344;29;20079;-36
2023/05/09 05:47:07;;;;;;;20.02;14.63;;;14.50;99.90;;;14.20;100.00;97380.19;4870456;29;20039;-36
2023/05/09 05:49:33;;;;;;;21.48;15.77;;;14.50;99.90;;;14.20;100.00;97370.41;4894963;29;20115;-37
2023/05/09 05:51:58;;;;;;;24.90;17.98;;;14.60;99.90;;;14.27;100.00;97382.44;4893988;29;20047;-37
2023/05/09 05:54:24;;;;;;;22.17;17.52;;;14.60;99.90;;;14.34;100.00;97377.66;4880059;29;20036;-37
2023/05/09 05:56:50;;;;;;;24.95;17.10;;;14.70;99.90;;;14.42;100.00;97375.44;4891780;29;20024;-37
2023/05/09 05:59:16;;;;;;;22.63;17.77;;;14.80;99.90;;;14.52;100.00;97379.34;4898321;29;20043;-37
2023/05/09 06:01:41;;;;;;;24.55;17.80;;;14.90;99.90;;;14.64;100.00;97380.53;4884666;29;20493;-36
2023/05/09 06:04:07;;;;;;;21.85;16.63;;;15.00;99.90;;;14.83;100.00;97379.53;4877731;29;20052;-36
2023/05/09 06:06:33;;;;;;;24.92;17.98;;;15.20;99.90;;;14.99;100.00;97371.56;4882866;29;20401;-36
2023/05/09 06:08:59;;;;;;;27.05;18.77;;;15.30;99.90;;;15.11;100.00;97378.00;4891599;29;20040;-36
2023/05/09 06:11:24;;;;;;;25.10;19.15;;;15.40;99.90;;;15.20;100.00;97366.84;4886380;29;20037;-36
2023/05/09 06:13:50;;;;;;;24.98;18.02;;;15.60;99.90;;;15.41;100.00;97375.41;4888911;29;20032;-36
2023/05/09 06:16:16;;;;;;;20.65;15.90;;;15.70;99.90;;;15.63;100.00;97365.28;4888186;29;20037;-36
2023/05/09 06:18:41;;;;;;;22.48;17.17;;;15.90;99.90;;;15.76;100.00;97368.09;4889233;29;20070;-36
2023/05/09 06:21:07;;;;;;;22.30;17.38;;;16.10;99.90;;;15.79;100.00;97349.31;4887554;29;20047;-36
2023/05/09 06:23:35;;;;;;;25.85;17.60;;;16.20;99.90;;;15.90;100.00;97364.66;4886607;29;20073;-36
2023/05/09 06:26:04;;;;;;;21.90;16.42;;;16.20;99.90;;;16.01;100.00;97359.53;4888464;29;20048;-36
2023/05/09 06:28:30;;;;;;;23.92;18.17;;;16.30;99.90;;;16.08;100.00;97362.69;4888280;29;20529;-36
2023/05/09 06:30:56;;;;;;;26.45;18.00;;;16.40;99.90;;;16.12;100.00;97364.22;4886074;29;20045;-36
2023/05/09 06:33:21;;;;;;;26.88;18.50;;;16.40;99.90;;;16.12;100.00;97366.03;4885946;29;20565;-36
2023/05/09 06:35:47;;;;;;;22.02;16.02;;;16.40;99.90;;;16.07;100.00;97347.66;4883540;29;20548;-36
2023/05/09 06:38:13;;;;;;;19.95;14.38;;;16.40;99.90;;;16.09;100.00;97356.41;4889426;29;20040;-36
2023/05/09 06:40:38;;;;;;;19.55;14.63;;;16.40;99.90;;;16.03;100.00;97352.31;4890830;29;20119;-36
2023/05/09 06:43:04;;;;;;;22.38;15.95;;;16.30;99.90;;;16.01;100.00;97353.38;4890957;29;20033;-36
2023/05/09 06:45:30;;;;;;;22.35;15.85;;;16.30;99.90;;;15.90;100.00;97346.03;4885248;29;20534;-36
2023/05/09 06:47:55;;;;;;;21.25;15.82;;;16.20;99.90;;;15.79;100.00;97352.00;4864945;29;20408;-36
2023/05/09 06:50:21;;;;;;;19.80;15.10;;;16.10;99.90;;;15.79;100.00;97354.66;4889314;29;20041;-36
2023/05/09 06:52:47;;;;;;;22.67;15.60;;;16.00;99.90;;;15.74;100.00;97346.06;4889732;29;20429;-36
2023/05/09 06:55:13;;;;;;;26.13;17.58;;;16.00;99.90;;;15.57;100.00;97343.50;4890249;29;20306;-36
2023/05/09 06:57:41;;;;;;;24.80;15.98;;;15.90;99.90;;;15.60;100.00;97351.31;4889172;29;20047;-36
2023/05/09 07:00:08;;;;;;;24.80;17.02;;;15.90;99.90;;;15.70;100.00;97343.63;4885488;29;20032;-36
2023/05/09 07:02:34;;;;;;;20.55;15.35;;;15.90;99.90;;;15.81;100.00;97342.09;4879090;29;20032;-36
2023/05/09 07:05:00;;;;;;;18.98;14.70;;;16.00;99.90;;;15.88;100.00;97336.41;4878668;29;20064;-36
2023/05/09 07:07:26;;;;;;;20.52;13.73;;;16.10;99.90;;;16.02;100.00;97339.09;4881395;29;20041;-36
2023/05/09 07:09:51;;;;;;;23.55;16.65;;;16.20;99.90;;;15.99;100.00;97336.66;4877723;29;20064;-36
2023/05/09 07:12:17;;;;;;;20.30;14.85;;;16.30;99.90;;;16.05;100.00;97338.09;4863606;29;20508;-36
2023/05/09 07:14:43;;;;;;;21.70;15.15;;;16.30;99.90;;;16.12;100.00;97339.44;4887800;29;21541;-36
2023/05/09 07:17:08;;;;;;;20.17;15.65;;;16.30;99.90;;;16.36;100.00;97337.06;4880555;29;20043;-36
2023/05/09 07:19:34;;;;;;;19.33;14.98;;;16.50;99.90;;;16.56;100.00;97331.38;4882625;29;20505;-36
2023/05/09 07:22:00;;;;;;;23.80;18.23;;;16.70;99.90;;;16.72;100.00;97327.75;4885880;29;20053;-36
2023/05/09 07:24:26;;;;;;;22.50;17.20;;;16.90;99.90;;;16.93;100.00;97320.25;4890324;29;20572;-36
2023/05/09 07:26:51;;;;;;;25.20;16.92;;;17.20;99.90;;;17.15;100.00;97315.22;4887056;29;20093;-36
2023/05/09 07:29:19;;;;;;;25.00;16.95;;;17.40;99.90;;;17.46;100.00;97312.34;4890542;29;20060;-36
2023/05/09 07:31:44;;;;;;;22.15;16.67;;;17.60;99.90;;;17.66;100.00;97303.06;4888885;29;20363;-36
2023/05/09 07:34:10;;;;;;;24.13;14.38;;;17.90;99.90;;;18.01;100.00;97287.34;4890914;29;20493;-36
2023/05/09 07:36:37;;;;;;;20.80;15.70;;;18.20;99.90;;;18.23;100.00;97296.53;4890763;29;20033;-36
2023/05/09 07:39:03;;;;;;;18.40;13.73;;;18.40;99.90;;;18.24;100.00;97274.22;4889015;29;20032;-36
2023/05/09 07:41:30;;;;;;;19.23;14.15;;;18.50;99.90;;;18.33;100.00;97288.75;4889761;29;20417;-36
2023/05/09 07:43:56;;;;;;;21.25;14.98;;;18.60;99.90;;;18.39;100.00;97280.28;4879214;29;20068;-38
2023/05/09 07:46:21;;;;;;;19.38;14.43;;;18.60;99.90;;;18.33;100.00;97278.06;4866379;29;20349;-37
2023/05/09 07:48:47;;;;;;;15.55;12.25;;;18.60;99.90;;;18.39;100.00;97278.47;4895246;29;20048;-37
2023/05/09 07:51:13;;;;;;;15.93;10.77;;;18.60;99.90;;;18.51;100.00;97269.59;4890756;29;20028;-38
2023/05/09 07:53:38;;;;;;;18.70;13.35;;;18.70;99.90;;;18.41;100.00;97270.34;4890476;29;20028;-36
2023/05/09 07:56:07;;;;;;;15.52;11.98;;;18.70;99.90;;;18.48;100.00;97267.16;4876419;29;20043;-36
2023/05/09 07:58:33;;;;;;;17.98;11.57;;;18.70;99.90;;;18.45;100.00;97275.38;4884943;29;20126;-37
2023/05/09 08:00:58;;;;;;;13.48;9.88;;;18.70;99.90;;;18.55;100.00;97274.72;4907594;29;20047;-36
2023/05/09 08:03:24;;;;;;;14.73;11.05;;;18.80;99.90;;;18.56;100.00;97263.94;4897378;29;20044;-37
2023/05/09 08:05:55;;;;;;;14.35;8.90;;;18.90;99.90;;;18.80;100.00;97255.94;4894830;29;20084;-37
2023/05/09 08:08:21;;;;;;;15.73;9.80;;;19.00;99.90;;;18.89;100.00;97249.97;4900854;29;20024;-37
2023/05/09 08:10:47;;;;;;;15.82;10.38;;;19.10;99.90;;;18.81;100.00;97239.00;4883831;29;20032;-36
2023/05/09 08:13:13;;;;;;;12.30;9.88;;;19.10;99.90;;;18.84;100.00;97232.56;4894354;29;20029;-36
2023/05/09 08:15:38;;;;;;;16.92;10.43;;;19.10;99.90;;;18.63;100.00;97237.66;4901563;29;20024;-37
2023/05/09 08:18:05;;;;;;;11.25;8.93;;;18.90;99.90;;;18.51;100.00;97236.69;4904457;29;20044;-37
2023/05/09 08:20:30;;;;;;;9.68;7.60;;;18.70;99.90;;;18.43;100.00;97223.91;4899163;29;20504;-36
2023/05/09 08:22:57;;;;;;;8.60;6.82;;;18.60;99.90;;;18.37;100.00;97232.34;4898118;29;20043;-36
2023/05/09 08:25:22;;;;;;;6.75;4.90;;;18.60;99.90;;;18.42;100.00;97226.69;4894128;29;20076;-36
2023/05/09 08:27:48;;;;;;;7.47;6.05;;;18.60;99.90;;;18.43;100.00;97221.22;4893357;29;20032;-36
2023/05/09 08:30:14;;;;;;;10.02;6.47;;;18.70;99.90;;;18.54;100.00;97219.59;4889148;29;20032;-35
2023/05/09 08:32:40;;;;;;;6.93;6.03;;;18.80;99.90;;;18.69;100.00;97221.16;4892106;29;20426;-36
2023/05/09 08:35:07;;;;;;;11.65;8.80;;;18.80;99.90;;;18.76;100.00;97214.41;4894054;29;20043;-36
2023/05/09 08:37:35;;;;;;;10.77;8.30;;;19.00;99.90;;;18.99;100.00;97199.38;4890911;29;20043;-36
2023/05/09 08:40:03;;;;;;;18.60;13.00;;;19.20;99.90;;;19.15;100.00;97204.44;4886781;29;20137;-36
2023/05/09 08:42:31;;;;;;;16.20;13.38;;;19.40;99.90;;;19.26;100.00;97195.63;4895783;29;20032;-36
2023/05/09 08:44:57;;;;;;;16.98;11.75;;;19.50;99.90;;;19.32;100.00;97191.63;4887528;29;20055;-36
2023/05/09 08:47:24;;;;;;;11.63;9.57;;;19.60;99.90;;;19.60;99.47;97201.09;4895843;29;20045;-36
2023/05/09 08:49:50;;;;;;;16.02;11.27;;;19.80;99.90;;;19.63;100.00;97199.03;4895293;29;20032;-36
2023/05/09 08:52:16;;;;;;;17.95;12.07;;;19.90;99.90;;;19.56;98.94;97203.13;4895372;29;20382;-36
2023/05/09 08:54:42;;;;;;;16.27;10.65;;;19.90;99.90;;;19.65;98.71;97210.44;4879854;29;20335;-36
2023/05/09 08:57:08;;;;;;;16.20;10.48;;;19.90;99.90;;;19.54;100.00;97201.53;4895357;29;20025;-36
2023/05/09 08:59:36;;;;;;;19.35;11.20;;;19.90;99.90;;;19.46;100.00;97194.94;4876422;29;20593;-36
2023/05/09 09:02:06;;;;;;;13.02;8.77;;;19.90;99.90;;;19.59;98.93;97202.88;4870218;29;20032;-36
2023/05/09 09:04:32;;;;;;;11.52;8.18;;;20.00;99.90;;;19.65;99.83;97197.06;4886030;29;20865;-36
2023/05/09 09:06:58;;;;;;;16.30;8.52;;;20.00;99.90;;;19.81;97.15;97201.25;4893319;29;20036;-36
2023/05/09 09:09:25;;;;;;;12.77;10.30;;;20.20;99.90;;;19.98;90.83;97202.63;4864035;29;20062;-36
2023/05/09 09:11:52;;;;;;;17.65;9.52;;;20.40;99.90;;;20.04;91.74;97188.75;4863802;29;20509;-36
2023/05/09 09:14:25;;;;;;;13.40;9.45;;;20.50;99.90;;;20.37;96.48;97193.28;4889617;29;20056;-36
2023/05/09 09:16:53;;;;;;;16.10;11.73;;;20.70;99.90;;;20.45;96.14;97186.44;4875430;29;20044;-36
2023/05/09 09:19:21;;;;;;;13.50;10.50;;;20.80;99.90;;;20.59;88.95;97187.03;4891049;29;20069;-36
2023/05/09 09:21:49;;;;;;;14.40;9.93;;;21.00;99.90;;;20.73;88.60;97179.75;4877192;29;20258;-36
2023/05/09 09:24:21;;;;;;;12.48;9.98;;;21.10;99.90;;;20.88;86.91;97172.25;4875039;29;20036;-36
2023/05/09 09:26:49;;;;;;;12.65;8.82;;;21.30;99.90;;;21.00;83.66;97171.25;4886525;29;20077;-36
2023/05/09 09:29:17;;;;;;;9.23;7.93;;;21.40;99.90;;;21.20;93.51;97166.06;4887602;29;20067;-36
2023/05/09 09:31:45;;;;;;;13.98;9.30;;;21.60;99.90;;;21.42;86.18;97168.63;4890631;29;20028;-37
2023/05/09 09:34:20;;;;;;;13.35;8.90;;;21.80;99.90;;;21.62;87.94;97163.41;4882894;29;20044;-36
2023/05/09 09:36:47;;;;;;;19.65;11.73;;;22.00;99.90;;;21.53;79.50;97157.00;4887432;29;20040;-36
2023/05/09 09:39:13;;;;;;;14.02;10.63;;;22.00;99.90;;;21.56;79.84;97153.22;4889236;29;20541;-37
2023/05/09 09:41:40;;;;;;;19.17;13.85;;;21.90;99.90;;;21.47;79.30;97150.34;4891244;29;20029;-36
2023/05/09 09:44:13;;;;;;;11.48;9.07;;;21.90;99.90;;;21.40;81.05;97140.22;4891034;29;20127;-36
2023/05/09 09:46:45;;;;;;;12.68;9.75;;;21.80;99.90;;;21.30;87.25;97137.47;4882461;29;20051;-36
2023/05/09 09:49:13;;;;;;;8.48;6.70;;;21.80;99.90;;;21.43;86.98;97145.34;4883319;29;20040;-36
2023/05/09 09:51:40;;;;;;;13.35;8.73;;;21.80;99.90;;;21.47;78.12;97139.59;4888496;29;20921;-36
2023/05/09 09:54:10;;;;;;;12.82;8.02;;;21.80;99.90;;;21.34;76.90;97139.78;4880462;29;20088;-36
2023/05/09 09:56:43;;;;;;;10.95;7.68;;;21.80;99.90;;;21.45;76.79;97132.66;4878684;29;20044;-36
2023/05/09 09:59:10;;;;;;;11.05;8.15;;;21.70;99.90;;;21.40;72.87;97118.78;4885354;29;20110;-36
2023/05/09 10:02:03;;;;;;;9.32;6.88;;;21.80;99.90;;;21.43;83.17;97111.31;4885503;29;20406;-37
2023/05/09 10:04:33;;;;;;;8.48;5.95;;;21.80;99.90;;;21.48;80.89;97103.75;4882644;29;20059;-36